createdAt,value
2023-03-04T00:01:03.543Z,14.43
2023-03-04T00:03:33.429Z,15.13
2023-03-04T00:06:01.928Z,16.57
2023-03-04T00:08:30.443Z,14.73
2023-03-04T00:10:58.911Z,15.03
2023-03-04T00:13:27.870Z,15.83
2023-03-04T00:15:56.345Z,16.63
2023-03-04T00:18:24.820Z,16.37
2023-03-04T00:20:54.683Z,15.77
2023-03-04T00:23:23.140Z,17.30
2023-03-04T00:25:51.719Z,20.67
2023-03-04T00:28:20.868Z,15.97
2023-03-04T00:30:49.342Z,17.37
2023-03-04T00:33:17.917Z,16.63
2023-03-04T00:35:46.463Z,16.40
2023-03-04T00:38:16.413Z,13.80
2023-03-04T00:40:44.961Z,15.03
2023-03-04T00:43:13.436Z,15.27
2023-03-04T00:45:41.990Z,15.37
2023-03-04T00:48:11.314Z,15.97
2023-03-04T00:50:39.941Z,14.07
2023-03-04T00:53:08.392Z,14.63
2023-03-04T00:55:38.328Z,14.87
2023-03-04T00:58:07.034Z,18.83
2023-03-04T01:00:35.497Z,18.93
2023-03-04T01:03:04.017Z,15.40
2023-03-04T01:05:34.369Z,15.00
2023-03-04T01:08:02.962Z,16.47
2023-03-04T01:10:31.526Z,19.70
2023-03-04T01:13:01.506Z,15.30
2023-03-04T01:15:30.072Z,15.17
2023-03-04T01:17:58.613Z,15.37
2023-03-04T01:20:27.145Z,15.73
2023-03-04T01:22:55.655Z,14.47
2023-03-04T01:25:24.222Z,11.87
2023-03-04T01:27:52.742Z,13.87
2023-03-04T01:30:22.813Z,12.80
2023-03-04T01:32:51.660Z,14.30
2023-03-04T01:35:44.912Z,13.73
2023-03-04T01:38:14.410Z,11.43
2023-03-04T01:40:42.896Z,14.23
2023-03-04T01:43:20.078Z,12.80
2023-03-04T01:45:52.021Z,12.43
2023-03-04T01:48:26.261Z,14.67
2023-03-04T01:50:54.935Z,14.50
2023-03-04T01:53:26.171Z,14.33
2023-03-04T01:55:56.321Z,13.87
2023-03-04T01:58:29.553Z,15.77
2023-03-04T02:01:00.449Z,15.67
2023-03-04T02:03:29.566Z,13.83
2023-03-04T02:05:58.435Z,13.17
2023-03-04T02:08:27.339Z,14.17
2023-03-04T02:10:56.445Z,15.20
2023-03-04T02:13:33.251Z,14.07
2023-03-04T02:16:03.374Z,14.37
2023-03-04T02:18:32.031Z,17.20
2023-03-04T02:21:13.722Z,16.20
2023-03-04T02:23:50.621Z,13.47
2023-03-04T02:26:22.585Z,14.60
2023-03-04T02:28:54.565Z,15.77
2023-03-04T02:31:27.787Z,15.80
2023-03-04T02:34:14.963Z,14.70
2023-03-04T02:36:46.127Z,15.83
2023-03-04T02:39:28.678Z,15.03
2023-03-04T02:41:59.066Z,14.47
2023-03-04T02:44:30.682Z,15.87
2023-03-04T02:47:00.199Z,15.43
2023-03-04T02:49:32.183Z,16.70
2023-03-04T02:52:05.700Z,16.13
2023-03-04T02:54:34.745Z,13.17
2023-03-04T02:57:09.919Z,15.90
2023-03-04T02:59:39.416Z,15.60
2023-03-04T03:02:33.211Z,11.90
2023-03-04T03:05:01.732Z,12.83
2023-03-04T03:07:30.151Z,15.60
2023-03-04T03:09:58.624Z,15.23
2023-03-04T03:12:28.535Z,13.90
2023-03-04T03:14:57.140Z,14.33
2023-03-04T03:17:25.732Z,14.57
2023-03-04T03:19:54.202Z,11.13
2023-03-04T03:22:22.765Z,12.77
2023-03-04T03:24:51.206Z,11.23
2023-03-04T03:27:19.633Z,12.63
2023-03-04T03:29:49.429Z,13.27
2023-03-04T03:32:18.099Z,14.47
2023-03-04T03:34:46.648Z,10.73
2023-03-04T03:37:16.308Z,13.47
2023-03-04T03:39:44.864Z,11.50
2023-03-04T03:42:13.362Z,11.43
2023-03-04T03:44:41.848Z,9.83
2023-03-04T03:47:11.757Z,11.13
2023-03-04T03:49:40.264Z,12.53
2023-03-04T03:52:09.790Z,10.93
2023-03-04T03:54:38.295Z,11.93
2023-03-04T03:57:07.024Z,9.93
2023-03-04T03:59:35.602Z,15.37
2023-03-04T04:02:04.365Z,12.17
2023-03-04T04:04:34.448Z,12.27
2023-03-04T04:07:02.892Z,14.23
2023-03-04T04:09:31.491Z,11.60
2023-03-04T04:12:00.011Z,11.00
2023-03-04T04:14:28.473Z,10.43
2023-03-04T04:16:56.940Z,10.73
2023-03-04T04:19:25.362Z,11.83
2023-03-04T04:21:55.254Z,11.60
2023-03-04T04:24:24.022Z,10.73
2023-03-04T04:26:52.480Z,10.87
2023-03-04T04:29:21.225Z,18.00
2023-03-04T04:31:49.848Z,22.73
2023-03-04T04:34:18.397Z,13.47
2023-03-04T04:36:46.933Z,9.47
2023-03-04T04:39:16.756Z,10.90
2023-03-04T04:41:47.207Z,10.27
2023-03-04T04:44:16.546Z,10.70
2023-03-04T04:46:45.166Z,11.13
2023-03-04T04:49:38.294Z,12.53
2023-03-04T04:52:07.252Z,12.80
2023-03-04T04:54:37.218Z,13.00
2023-03-04T04:57:21.608Z,10.93
2023-03-04T04:59:50.113Z,10.73
2023-03-04T05:02:18.765Z,10.97
2023-03-04T05:04:47.242Z,10.97
2023-03-04T05:07:15.812Z,12.53
2023-03-04T05:09:45.967Z,11.97
2023-03-04T05:12:14.565Z,11.63
2023-03-04T05:14:43.048Z,12.20
2023-03-04T05:17:11.529Z,13.57
2023-03-04T05:19:40.017Z,15.97
2023-03-04T05:22:08.614Z,10.00
2023-03-04T05:24:37.211Z,10.87
2023-03-04T05:27:07.174Z,10.03
2023-03-04T05:29:35.724Z,11.30
2023-03-04T05:32:04.256Z,9.60
2023-03-04T05:34:37.750Z,9.93
2023-03-04T05:37:06.305Z,10.20
2023-03-04T05:39:34.801Z,13.10
2023-03-04T05:42:03.260Z,12.90
2023-03-04T05:44:33.201Z,10.97
2023-03-04T05:47:01.683Z,10.30
2023-03-04T05:49:30.481Z,9.33
2023-03-04T05:51:59.014Z,11.73
2023-03-04T05:54:27.638Z,9.27
2023-03-04T05:56:56.407Z,8.83
2023-03-04T05:59:25.204Z,9.00
2023-03-04T06:01:55.231Z,12.23
2023-03-04T06:04:23.766Z,9.63
2023-03-04T06:06:52.218Z,13.53
2023-03-04T06:09:21.247Z,10.33
2023-03-04T06:11:49.682Z,11.47
2023-03-04T06:14:18.400Z,12.20
2023-03-04T06:16:46.853Z,11.93
2023-03-04T06:19:20.385Z,12.93
2023-03-04T06:21:53.425Z,14.47
2023-03-04T06:24:22.202Z,15.37
2023-03-04T06:26:50.630Z,12.63
2023-03-04T06:29:19.180Z,14.80
2023-03-04T06:31:47.811Z,15.50
2023-03-04T06:34:16.435Z,14.27
2023-03-04T06:36:46.379Z,17.90
2023-03-04T06:39:14.837Z,14.60
2023-03-04T06:41:43.355Z,17.53
2023-03-04T06:44:11.761Z,16.40
2023-03-04T06:46:40.310Z,13.43
2023-03-04T06:49:08.912Z,17.30
2023-03-04T06:51:37.745Z,15.63
2023-03-04T06:54:07.765Z,15.20
2023-03-04T06:56:36.349Z,19.23
2023-03-04T06:59:04.889Z,17.97
2023-03-04T07:01:34.832Z,16.83
2023-03-04T07:04:03.693Z,20.90
2023-03-04T07:06:32.196Z,18.87
2023-03-04T07:09:00.841Z,19.23
2023-03-04T07:12:00.513Z,17.57
2023-03-04T07:14:29.183Z,17.60
2023-03-04T07:16:57.707Z,17.07
2023-03-04T07:19:26.403Z,19.53
2023-03-04T07:21:54.819Z,15.60
2023-03-04T07:24:23.348Z,14.67
2023-03-04T07:26:51.831Z,14.37
2023-03-04T07:29:21.721Z,13.87
2023-03-04T07:31:52.308Z,9.70
2023-03-04T07:34:22.176Z,13.43
2023-03-04T07:36:50.612Z,13.93
2023-03-04T07:39:19.169Z,15.87
2023-03-04T07:41:47.659Z,14.07
2023-03-04T07:44:16.089Z,13.90
2023-03-04T07:46:45.955Z,13.63
2023-03-04T07:49:39.049Z,16.30
2023-03-04T07:52:08.833Z,13.13
2023-03-04T07:54:37.598Z,16.83
2023-03-04T07:57:06.141Z,15.10
2023-03-04T07:59:34.616Z,16.17
2023-03-04T08:02:04.542Z,16.50
2023-03-04T08:04:33.235Z,19.83
2023-03-04T08:07:01.740Z,16.73
2023-03-04T08:09:31.473Z,14.17
2023-03-04T08:11:59.970Z,19.80
2023-03-04T08:14:28.475Z,16.70
2023-03-04T08:16:56.932Z,17.03
2023-03-04T08:19:27.113Z,16.83
2023-03-04T08:21:55.633Z,17.27
2023-03-04T08:24:24.229Z,17.57
2023-03-04T08:26:52.694Z,17.13
2023-03-04T08:29:24.378Z,18.57
2023-03-04T08:31:55.643Z,17.13
2023-03-04T08:34:29.384Z,18.83
2023-03-04T08:37:22.634Z,22.67
2023-03-04T08:39:51.235Z,21.03
2023-03-04T08:42:19.691Z,16.33
2023-03-04T08:44:48.280Z,18.30
2023-03-04T08:47:16.761Z,22.47
2023-03-04T08:49:46.645Z,19.37
2023-03-04T08:52:15.143Z,20.50
2023-03-04T08:54:43.585Z,17.03
2023-03-04T08:57:12.099Z,17.50
2023-03-04T08:59:40.544Z,16.00
2023-03-04T09:02:09.115Z,17.87
2023-03-04T09:04:44.948Z,14.90
2023-03-04T09:07:14.282Z,19.10
2023-03-04T09:09:43.031Z,16.27
2023-03-04T09:12:11.540Z,17.40
2023-03-04T09:14:40.071Z,15.50
2023-03-04T09:17:08.575Z,18.30
2023-03-04T09:19:37.077Z,15.30
2023-03-04T09:22:06.879Z,17.10
2023-03-04T09:24:35.371Z,15.57
2023-03-04T09:27:03.817Z,16.67
2023-03-04T09:29:57.348Z,22.03
2023-03-04T09:32:26.020Z,20.13
2023-03-04T09:34:54.449Z,20.97
2023-03-04T09:37:24.324Z,19.43
2023-03-04T09:39:52.758Z,20.97
2023-03-04T09:42:28.117Z,21.83
2023-03-04T09:44:57.714Z,15.37
2023-03-04T09:47:28.014Z,18.60
2023-03-04T09:50:01.186Z,19.27
2023-03-04T09:52:52.398Z,19.47
2023-03-04T09:55:26.971Z,17.97
2023-03-04T09:58:04.179Z,17.67
2023-03-04T10:00:40.701Z,17.70
2023-03-04T10:03:20.047Z,16.40
2023-03-04T10:05:57.577Z,19.13
2023-03-04T10:08:41.534Z,17.07
2023-03-04T10:11:17.691Z,16.47
2023-03-04T10:13:58.827Z,19.03
2023-03-04T10:16:38.730Z,17.23
2023-03-04T10:19:31.693Z,18.50
2023-03-04T10:22:03.395Z,15.87
2023-03-04T10:24:33.319Z,14.03
2023-03-04T10:27:08.272Z,16.50
2023-03-04T10:29:37.904Z,14.17
2023-03-04T10:32:06.930Z,16.07
2023-03-04T10:34:35.443Z,16.40
2023-03-04T10:37:08.753Z,16.37
2023-03-04T10:39:42.027Z,15.03
2023-03-04T10:42:37.498Z,16.17
2023-03-04T10:45:21.958Z,14.47
2023-03-04T10:47:58.892Z,15.73
2023-03-04T10:50:34.692Z,14.77
2023-03-04T10:53:03.570Z,15.07
2023-03-04T10:55:46.154Z,16.57
2023-03-04T10:58:39.295Z,13.53
2023-03-04T11:01:08.367Z,13.47
2023-03-04T11:03:38.874Z,13.20
2023-03-04T11:06:20.014Z,13.97
2023-03-04T11:08:56.989Z,15.07
2023-03-04T11:11:42.428Z,17.97
2023-03-04T11:14:24.154Z,15.03
2023-03-04T11:16:58.548Z,14.77
2023-03-04T11:19:36.619Z,14.67
2023-03-04T11:22:18.903Z,15.13
2023-03-04T11:24:59.592Z,14.07
2023-03-04T11:30:55.261Z,14.10
2023-03-04T11:33:33.392Z,14.87
2023-03-04T11:36:23.776Z,15.50
2023-03-04T11:38:53.569Z,13.60
2023-03-04T11:41:51.659Z,15.37
2023-03-04T11:44:21.558Z,12.67
2023-03-04T11:47:15.842Z,15.17
2023-03-04T11:50:24.467Z,16.70
2023-03-04T11:53:39.436Z,13.13
2023-03-04T11:56:31.269Z,14.10
2023-03-04T11:59:36.061Z,14.50
2023-03-04T12:02:19.423Z,13.63
2023-03-04T12:05:27.265Z,13.80
2023-03-04T12:08:38.085Z,12.40
2023-03-04T12:11:17.276Z,12.63
2023-03-04T12:14:21.554Z,12.80
2023-03-04T12:17:28.345Z,15.27
2023-03-04T12:20:36.069Z,13.90
2023-03-04T12:23:29.224Z,15.43
2023-03-04T12:26:04.145Z,12.20
2023-03-04T12:28:58.373Z,10.97
2023-03-04T12:31:40.230Z,12.80
2023-03-04T12:34:44.404Z,12.87
2023-03-04T12:37:59.569Z,13.83
2023-03-04T12:40:39.732Z,12.67
2023-03-04T12:43:36.327Z,12.30
2023-03-04T12:46:38.723Z,13.10
2023-03-04T12:49:41.061Z,13.73
2023-03-04T12:52:20.478Z,13.07
2023-03-04T12:54:56.803Z,11.80
2023-03-04T12:57:31.593Z,14.00
2023-03-04T13:00:18.257Z,13.27
2023-03-04T13:03:04.291Z,13.83
2023-03-04T13:06:29.814Z,17.27
2023-03-04T13:09:13.882Z,17.70
2023-03-04T13:11:52.714Z,16.80
2023-03-04T13:14:34.410Z,12.30
2023-03-04T13:17:43.400Z,13.30
2023-03-04T13:20:32.881Z,23.47
2023-03-04T13:23:05.487Z,15.47
2023-03-04T13:25:42.389Z,17.00
2023-03-04T13:28:29.277Z,16.53
2023-03-04T13:31:26.615Z,13.63
2023-03-04T13:34:04.639Z,12.30
2023-03-04T13:36:59.680Z,14.50
2023-03-04T13:39:38.692Z,16.13
2023-03-04T13:42:42.307Z,14.20
2023-03-04T13:45:37.024Z,14.00
2023-03-04T13:48:24.074Z,14.23
2023-03-04T13:50:53.456Z,14.97
2023-03-04T13:53:40.116Z,14.80
2023-03-04T13:56:38.096Z,15.07
2023-03-04T13:59:31.073Z,13.17
2023-03-04T14:02:03.624Z,13.20
2023-03-04T14:04:35.652Z,13.93
2023-03-04T14:07:20.039Z,14.50
2023-03-04T14:10:01.194Z,18.00
2023-03-04T14:12:34.560Z,16.77
2023-03-04T14:15:07.827Z,15.50
2023-03-04T14:17:38.412Z,16.43
2023-03-04T14:20:25.322Z,16.43
2023-03-04T14:22:54.552Z,15.13
2023-03-04T14:25:27.182Z,14.30
2023-03-04T14:28:11.048Z,19.17
2023-03-04T14:30:43.721Z,16.87
2023-03-04T14:33:20.595Z,16.73
2023-03-04T14:35:52.077Z,15.73
2023-03-04T14:38:27.501Z,17.50
2023-03-04T14:41:01.975Z,20.90
2023-03-04T14:43:37.276Z,21.03
2023-03-04T14:46:13.540Z,15.87
2023-03-04T14:48:50.800Z,16.83
2023-03-04T14:51:39.626Z,19.67
2023-03-04T14:54:08.638Z,18.87
2023-03-04T14:56:45.955Z,17.57
2023-03-04T14:59:16.065Z,23.00
2023-03-04T15:01:46.040Z,19.07
2023-03-04T15:04:21.219Z,15.30
2023-03-04T15:06:53.410Z,18.77
2023-03-04T15:09:27.585Z,19.20
2023-03-04T15:12:03.829Z,22.07
2023-03-04T15:14:51.992Z,24.00
2023-03-04T15:17:28.745Z,18.73
2023-03-04T15:20:26.667Z,23.10
2023-03-04T15:23:07.343Z,21.63
2023-03-04T15:25:36.924Z,21.70
2023-03-04T15:28:08.003Z,24.30
2023-03-04T15:30:41.391Z,23.60
2023-03-04T15:33:12.704Z,22.60
2023-03-04T15:35:43.322Z,22.70
2023-03-04T15:38:51.065Z,19.50
2023-03-04T15:41:30.323Z,20.83
2023-03-04T15:43:58.891Z,25.73
2023-03-04T15:46:28.860Z,21.57
2023-03-04T15:48:57.308Z,23.47
2023-03-04T15:51:26.922Z,20.27
2023-03-04T15:53:59.148Z,25.20
2023-03-04T15:56:30.447Z,25.17
2023-03-04T15:59:04.300Z,19.50
2023-03-04T16:01:34.246Z,20.07
2023-03-04T16:04:02.879Z,19.60
2023-03-04T16:06:33.721Z,20.20
2023-03-04T16:09:06.889Z,22.67
2023-03-04T16:11:45.458Z,19.13
2023-03-04T16:14:15.498Z,19.23
2023-03-04T16:16:46.920Z,20.87
2023-03-04T16:19:15.939Z,21.57
2023-03-04T16:21:44.500Z,22.77
2023-03-04T16:24:38.420Z,24.10
2023-03-04T16:27:11.722Z,30.33
2023-03-04T16:29:40.162Z,26.03
2023-03-04T16:32:12.056Z,24.20
2023-03-04T16:34:40.523Z,23.40
2023-03-04T16:37:18.406Z,23.73
2023-03-04T16:39:49.160Z,21.00
2023-03-04T16:42:44.560Z,19.70
2023-03-04T16:45:19.038Z,31.77
2023-03-04T16:47:49.106Z,23.47
2023-03-04T16:50:21.004Z,34.73
2023-03-04T16:52:50.589Z,39.00
2023-03-04T16:55:22.982Z,36.07
2023-03-04T16:57:52.288Z,39.93
2023-03-04T17:00:36.183Z,35.37
2023-03-04T17:03:06.105Z,52.30
2023-03-04T17:05:35.037Z,46.80
2023-03-04T17:08:03.541Z,41.43
2023-03-04T17:10:32.071Z,39.20
2023-03-04T17:13:00.530Z,39.53
2023-03-04T17:15:31.144Z,46.27
2023-03-04T17:17:59.606Z,43.00
2023-03-04T17:20:29.576Z,43.30
2023-03-04T17:22:58.033Z,49.73
2023-03-04T17:25:26.474Z,50.87
2023-03-04T17:27:54.890Z,48.47
2023-03-04T17:30:23.477Z,37.80
2023-03-04T17:32:52.030Z,47.27
2023-03-04T17:35:20.829Z,53.03
2023-03-04T17:37:50.773Z,42.60
2023-03-04T17:40:20.161Z,37.47
2023-03-04T17:42:48.665Z,29.47
2023-03-04T17:45:17.210Z,37.80
2023-03-04T17:47:45.628Z,46.63
2023-03-04T17:50:14.467Z,45.57
2023-03-04T17:52:42.905Z,46.20
2023-03-04T17:55:13.070Z,50.27
2023-03-04T17:57:41.568Z,54.77
2023-03-04T18:00:12.097Z,64.07
2023-03-04T18:02:45.565Z,52.40
2023-03-04T18:05:14.028Z,44.97
2023-03-04T18:07:42.525Z,37.40
2023-03-04T18:10:13.581Z,32.67
2023-03-04T18:12:42.115Z,33.03
2023-03-04T18:15:11.613Z,40.53
2023-03-04T18:17:40.026Z,41.10
2023-03-04T18:20:10.403Z,49.30
2023-03-04T18:22:38.951Z,50.03
2023-03-04T18:25:10.810Z,40.33
2023-03-04T18:27:41.955Z,30.73
2023-03-04T18:30:17.617Z,32.57
2023-03-04T18:32:52.274Z,34.77
2023-03-04T18:35:21.200Z,29.90
2023-03-04T18:37:50.438Z,28.47
2023-03-04T18:40:20.080Z,30.90
2023-03-04T18:43:29.286Z,33.87
2023-03-04T18:46:07.045Z,37.37
2023-03-04T18:49:03.968Z,35.00
2023-03-04T18:51:32.799Z,31.70
2023-03-04T18:54:01.408Z,27.53
2023-03-04T18:56:38.524Z,17.50
2023-03-04T18:59:15.418Z,15.33
2023-03-04T19:01:44.407Z,16.97
2023-03-04T19:04:14.790Z,12.83
2023-03-04T19:06:43.263Z,20.13
2023-03-04T19:09:11.936Z,18.80
2023-03-04T19:11:40.402Z,22.80
2023-03-04T19:14:11.740Z,21.63
2023-03-04T19:16:41.019Z,20.80
2023-03-04T19:19:09.637Z,19.80
2023-03-04T19:21:44.778Z,21.90
2023-03-04T19:24:13.356Z,21.57
2023-03-04T19:26:41.841Z,21.83
2023-03-04T19:29:11.674Z,22.43
2023-03-04T19:31:41.586Z,20.20
2023-03-04T19:34:10.684Z,20.57
2023-03-04T19:36:39.668Z,20.83
2023-03-04T19:39:09.943Z,23.60
2023-03-04T19:41:41.877Z,22.07
2023-03-04T19:44:11.842Z,23.93
2023-03-04T19:46:40.303Z,28.07
2023-03-04T19:49:10.066Z,25.70
2023-03-04T19:51:38.961Z,28.43
2023-03-04T19:54:07.804Z,26.13
2023-03-04T19:56:36.320Z,32.60
2023-03-04T19:59:05.319Z,30.40
2023-03-04T20:01:38.485Z,27.50
2023-03-04T20:04:11.229Z,29.10
2023-03-04T20:06:42.997Z,33.77
2023-03-04T20:09:12.426Z,29.93
2023-03-04T20:11:54.956Z,31.93
2023-03-04T20:14:26.179Z,32.00
2023-03-04T20:16:59.241Z,36.93
2023-03-04T20:19:27.785Z,34.00
2023-03-04T20:21:56.444Z,30.10
2023-03-04T20:24:25.705Z,29.07
2023-03-04T20:26:55.607Z,25.20
2023-03-04T20:29:24.431Z,24.47
2023-03-04T20:31:55.813Z,27.40
2023-03-04T20:34:25.456Z,21.97
2023-03-04T20:36:53.934Z,30.13
2023-03-04T20:39:29.041Z,27.13
2023-03-04T20:41:58.431Z,31.30
2023-03-04T20:44:27.006Z,28.20
2023-03-04T20:46:57.068Z,33.63
2023-03-04T20:49:29.092Z,35.43
2023-03-04T20:52:06.299Z,30.00
2023-03-04T20:54:35.884Z,34.53
2023-03-04T20:57:06.826Z,27.50
2023-03-04T20:59:35.403Z,26.70
2023-03-04T21:02:05.984Z,28.63
2023-03-04T21:04:35.191Z,33.13
2023-03-04T21:07:04.139Z,26.10
2023-03-04T21:09:32.617Z,28.10
2023-03-04T21:12:01.262Z,29.30
2023-03-04T21:14:32.715Z,28.03
2023-03-04T21:17:05.306Z,31.97
2023-03-04T21:19:36.381Z,32.33
2023-03-04T21:22:05.865Z,30.60
2023-03-04T21:24:39.477Z,28.40
2023-03-04T21:27:08.537Z,29.53
2023-03-04T21:29:37.060Z,37.13
2023-03-04T21:32:32.258Z,36.00
2023-03-04T21:35:20.429Z,35.27
2023-03-04T21:37:49.002Z,30.03
2023-03-04T21:40:17.705Z,32.43
2023-03-04T21:42:46.097Z,32.43
2023-03-04T21:45:14.570Z,35.73
2023-03-04T21:48:09.492Z,26.33
2023-03-04T21:50:38.977Z,28.10
2023-03-04T21:53:07.425Z,26.83
2023-03-04T21:55:35.923Z,25.93
2023-03-04T21:58:04.408Z,30.43
2023-03-04T22:00:32.957Z,26.07
2023-03-04T22:03:01.392Z,24.03
2023-03-04T22:05:31.215Z,23.50
2023-03-04T22:07:59.750Z,25.70
2023-03-04T22:10:28.309Z,27.00
2023-03-04T22:13:21.851Z,27.57
2023-03-04T22:15:50.283Z,27.27
2023-03-04T22:18:18.780Z,26.30
2023-03-04T22:21:16.339Z,24.03
2023-03-04T22:23:45.468Z,24.83
2023-03-04T22:26:17.463Z,25.80
2023-03-04T22:28:46.852Z,27.80
2023-03-04T22:31:17.917Z,30.87
2023-03-04T22:33:47.000Z,28.90
2023-03-04T22:36:16.940Z,31.30
2023-03-04T22:38:45.494Z,28.53
2023-03-04T22:41:15.806Z,34.87
2023-03-04T22:43:44.693Z,28.33
2023-03-04T22:46:15.700Z,27.07
2023-03-04T22:48:44.498Z,25.47
2023-03-04T22:51:13.621Z,23.30
2023-03-04T22:53:43.929Z,23.10
2023-03-04T22:56:14.083Z,25.73
2023-03-04T22:58:43.145Z,20.00
2023-03-04T23:01:13.094Z,27.67
2023-03-04T23:03:44.180Z,23.43
2023-03-04T23:06:16.196Z,23.03
2023-03-04T23:08:48.008Z,25.10
2023-03-04T23:11:19.856Z,25.70
2023-03-04T23:13:49.610Z,23.23
2023-03-04T23:16:19.395Z,24.03
2023-03-04T23:18:49.843Z,23.50
2023-03-04T23:21:22.106Z,25.47
2023-03-04T23:23:52.760Z,22.53
2023-03-04T23:26:23.977Z,22.73
2023-03-04T23:28:53.294Z,24.13
2023-03-04T23:31:22.624Z,25.20
2023-03-04T23:33:51.153Z,29.27
2023-03-04T23:36:20.607Z,25.40
2023-03-04T23:38:52.566Z,25.47
2023-03-04T23:41:24.521Z,26.60
2023-03-04T23:43:55.278Z,26.90
2023-03-04T23:46:24.983Z,27.70
2023-03-04T23:48:56.048Z,23.23
2023-03-04T23:51:28.569Z,21.00
2023-03-04T23:53:59.354Z,20.13
2023-03-04T23:56:31.191Z,23.67
2023-03-04T23:59:04.771Z,24.67
